ADDS METAR Data INFO
IDs: Format: Raw Decoded Include TAF

Data at: 2053 UTC 24 Jun 2017

KEMM 242035Z AUTO 00000KT 10SM 22/M02 A3039 RMK AO2
KEMM 242015Z AUTO 00000KT 10SM 21/M03 A3040 RMK AO2
KEMM 241955Z AUTO 00000KT 10SM 21/M03 A3040 RMK AO2
KEMM 241935Z AUTO 22004KT 10SM 20/M01 A3040 RMK AO2
KEMM 241915Z AUTO 17004KT 10SM 20/M02 A3041 RMK AO2
KEMM 241855Z AUTO 11004KT 10SM 20/M02 A3041 RMK AO2
KEMM 241835Z AUTO 10003KT 10SM 20/M01 A3041 RMK AO2
KEMM 241815Z AUTO 15006KT 10SM 18/00 A3042 RMK AO2
KEMM 241755Z AUTO 00000KT 10SM 18/M01 A3042 RMK AO2
KEMM 241735Z AUTO 12004KT 10SM 18/00 A3042 RMK AO2
KEMM 241715Z AUTO 06003KT 10SM 17/00 A3042 RMK AO2
KEMM 241655Z AUTO 13005KT 10SM 17/00 A3042 RMK AO2
KEMM 241635Z AUTO 10004KT 10SM 16/00 A3042 RMK AO2
KEMM 241615Z AUTO 14003KT 10SM 15/00 A3042 RMK AO2
KEMM 241555Z AUTO 12005KT 10SM 15/00 A3042 RMK AO2
KEMM 241535Z AUTO 13003KT 10SM 14/00 A3042 RMK AO2
KEMM 241515Z AUTO 12003KT 10SM 14/00 A3042 RMK AO2
KEMM 241455Z AUTO 07004KT 10SM 13/00 A3042 RMK AO2
KEMM 241435Z AUTO 05005KT 10SM 13/00 A3042 RMK AO2
KEMM 241415Z AUTO 04004KT 10SM 12/00 A3041 RMK AO2
KEMM 241355Z AUTO 02005KT 10SM 11/00 A3041 RMK AO2
KEMM 241335Z AUTO 01006KT 10SM 10/00 A3040 RMK AO2
KEMM 241315Z AUTO 01008KT 10SM 08/00 A3040 RMK AO2
KEMM 241255Z AUTO 36010KT 10SM 06/M01 A3040 RMK AO2
KEMM 241235Z AUTO 36009KT 10SM 06/M01 A3040 RMK AO2
KEMM 241215Z AUTO 36009KT 10SM 05/M01 A3038 RMK AO2
KEMM 241155Z AUTO 36008KT 10SM 05/M01 A3038 RMK AO2
KEMM 241135Z AUTO 36009KT 10SM 06/M01 A3038 RMK AO2
KEMM 241115Z AUTO 01009KT 10SM 07/M01 A3036 RMK AO2
KEMM 241055Z AUTO 36011KT 10SM 06/M01 A3036 RMK AO2
KEMM 241035Z AUTO 01011KT 10SM 07/M01 A3036 RMK AO2
KEMM 241015Z AUTO 01012KT 10SM 07/M01 A3036 RMK AO2
KEMM 240955Z AUTO 01010KT 10SM 07/M01 A3036 RMK AO2
KEMM 240935Z AUTO 01010KT 10SM 07/M01 A3036 RMK AO2
KEMM 240915Z AUTO 01009KT 10SM 07/M01 A3037 RMK AO2
KEMM 240855Z AUTO 36008KT 10SM 07/M01 A3037 RMK AO2
KEMM 240835Z AUTO 36008KT 10SM 08/M01 A3037 RMK AO2
KEMM 240815Z AUTO 36009KT 10SM 07/M01 A3036 RMK AO2
KEMM 240755Z AUTO 35009KT 10SM 07/M02 A3036 RMK AO2
KEMM 240735Z AUTO 35008KT 10SM 07/M02 A3036 RMK AO2
KEMM 240715Z AUTO 35011KT 10SM 09/M02 A3036 RMK AO2
KEMM 240655Z AUTO 34010KT 10SM 08/M02 A3035 RMK AO2
KEMM 240635Z AUTO 34012KT 10SM 09/M02 A3036 RMK AO2
KEMM 240615Z AUTO 31010KT 10SM 10/M01 A3035 RMK AO2
KEMM 240555Z AUTO 36010KT 10SM 10/M01 A3035 RMK AO2
KEMM 240535Z AUTO 35008KT 10SM 10/M02 A3035 RMK AO2
KEMM 240515Z AUTO 33011KT 10SM 11/M03 A3035 RMK AO2
KEMM 240455Z AUTO 32011KT 10SM 12/M02 A3035 RMK AO2
KEMM 240435Z AUTO 32011KT 10SM 12/M02 A3035 RMK AO2
KEMM 240420Z AUTO 32011KT 10SM 12/M01 A3035 RMK AO2
KEMM 240355Z AUTO 32009KT 10SM 13/00 A3034 RMK AO2
KEMM 240335Z AUTO 32008KT 10SM 13/00 A3033 RMK AO2
KEMM 240315Z AUTO 31008KT 10SM 15/M01 A3032 RMK AO2
KEMM 240255Z AUTO 30007KT 10SM 16/00 A3032 RMK AO2
KEMM 240235Z AUTO 30008KT 10SM 17/M01 A3031 RMK AO2
KEMM 240215Z AUTO 30008KT 10SM 18/M01 A3031 RMK AO2
KEMM 240155Z AUTO 30011G15KT 10SM 19/M01 A3031 RMK AO2
KEMM 240135Z AUTO 29012G19KT 10SM 20/M02 A3030 RMK AO2
KEMM 240115Z AUTO 31015G19KT 10SM 20/M02 A3030 RMK AO2
KEMM 240055Z AUTO 31012G20KT 10SM 21/M02 A3030 RMK AO2
KEMM 240035Z AUTO 29013G19KT 10SM 21/M02 A3029 RMK AO2
KEMM 240015Z AUTO 29012G19KT 10SM A3029 RMK AO2
KEMM 232355Z AUTO 30012G19KT 10SM A3029 RMK AO2
KEMM 232335Z AUTO 27013G20KT 10SM 22/M04 A3029 RMK AO2
KEMM 232315Z AUTO 30014G21KT 10SM 22/M04 A3028 RMK AO2
KEMM 232255Z AUTO 31009G21KT 10SM 22/M03 A3028 RMK AO2
KEMM 232235Z AUTO 29015G20KT 10SM 22/M03 A3028 RMK AO2
KEMM 232215Z AUTO 28012KT 10SM 22/M05 A3028 RMK AO2
KEMM 232155Z AUTO 26015G23KT 10SM 22/M06 A3028 RMK AO2
KEMM 232135Z AUTO 28015G22KT 10SM 22/M06 A3029 RMK AO2
KEMM 232115Z AUTO 25012G17KT 240V300 10SM 22/M03 A3029 RMK AO2
KEMM 232055Z AUTO 26015G21KT 10SM 21/M04 A3030 RMK AO2
KEMM 232035Z AUTO 25013G20KT 10SM 21/M01 A3030 RMK AO2
KEMM 232015Z AUTO 26013G20KT 10SM 21/M01 A3030 RMK AO2
KEMM 231955Z AUTO 26013G20KT 10SM 21/M01 A3030 RMK AO2
KEMM 231935Z AUTO 29008G18KT 250V320 10SM 21/00 A3031 RMK AO2
KEMM 231915Z AUTO 24007G16KT 10SM 20/M01 A3031 RMK AO2
KEMM 231855Z AUTO 24012G16KT 10SM 19/M01 A3031 RMK AO2
KEMM 231835Z AUTO 27009G16KT 250V320 10SM 18/M01 A3031 RMK AO2
KEMM 231815Z AUTO 24008KT 10SM 18/M01 A3032 RMK AO2
KEMM 231755Z AUTO 23006KT 10SM 17/00 A3033 RMK AO2
KEMM 231735Z AUTO 23008KT 10SM 17/00 A3033 RMK AO2
KEMM 231715Z AUTO 00000KT 10SM 16/M01 A3033 RMK AO2
KEMM 231655Z AUTO 23004KT 10SM 16/M01 A3033 RMK AO2
KEMM 231635Z AUTO 00000KT 10SM 15/M01 A3033 RMK AO2
KEMM 231615Z AUTO 09004KT 10SM 13/M01 A3033 RMK AO2
KEMM 231555Z AUTO 09003KT 10SM 13/M01 A3033 RMK AO2
KEMM 231535Z AUTO 10004KT 10SM 12/M01 A3034 RMK AO2
KEMM 231515Z AUTO 09004KT 10SM 12/M01 A3034 RMK AO2
KEMM 231455Z AUTO 07005KT 10SM 12/M02 A3033 RMK AO2
KEMM 231435Z AUTO 08004KT 10SM 11/M02 A3033 RMK AO2
KEMM 231415Z AUTO 04006KT 10SM 11/M01 A3033 RMK AO2
KEMM 231355Z AUTO 03006KT 10SM 10/M01 A3033 RMK AO2
KEMM 231335Z AUTO 03006KT 10SM 09/M01 A3033 RMK AO2
KEMM 231315Z AUTO 03008KT 10SM 08/M01 A3033 RMK AO2
KEMM 231255Z AUTO 02007KT 10SM 07/M02 A3033 RMK AO2
KEMM 231235Z AUTO 02007G14KT 10SM 07/M02 A3033 RMK AO2
KEMM 231215Z AUTO 07008G15KT 10SM 08/M03 A3033 RMK AO2
KEMM 231155Z AUTO 09011G16KT 10SM 08/M03 A3032 RMK AO2
KEMM 231135Z AUTO 06007KT 020V090 10SM 08/M02 A3031 RMK AO2
KEMM 231115Z AUTO 04006KT 10SM 07/M02 A3031 RMK AO2
KEMM 231055Z AUTO 07011G16KT 10SM 08/M02 A3030 RMK AO2
KEMM 231035Z AUTO 03006G18KT 10SM 09/M02 A3030 RMK AO2
KEMM 231015Z AUTO 03005KT 10SM 09/M02 A3030 RMK AO2
KEMM 230955Z AUTO 03009G16KT 350V050 10SM 09/M02 A3030 RMK AO2
KEMM 230935Z AUTO 07007KT 10SM 10/M02 A3030 RMK AO2
KEMM 230915Z AUTO 07009G17KT 10SM 10/M03 A3029 RMK AO2
KEMM 230855Z AUTO 07007G18KT 020V090 10SM 10/M03 A3029 RMK AO2


Page loaded:  20:53 UTC  |   01:53 PM Pacific  |   02:53 PM Mountain  |   03:53 PM Central  |   04:53 PM Eastern

 

ADVISORIES

FORECASTS

FORECASTS

OBSERVATIONS

USER TOOLS

ABOUT US